createdAt,value
2017-08-25T00:01:26.790Z,30.43
2017-08-25T00:03:53.224Z,34.03
2017-08-25T00:06:19.656Z,21.83
2017-08-25T00:08:46.095Z,23.37
2017-08-25T00:11:12.529Z,31.80
2017-08-25T00:13:38.969Z,13.47
2017-08-25T00:16:05.502Z,20.87
2017-08-25T00:18:31.935Z,18.87
2017-08-25T00:20:58.373Z,20.90
2017-08-25T00:23:24.808Z,16.97
2017-08-25T00:25:51.342Z,18.33
2017-08-25T00:28:17.778Z,23.37
2017-08-25T00:30:44.213Z,15.07
2017-08-25T00:33:10.687Z,22.23
2017-08-25T00:35:37.205Z,16.00
2017-08-25T00:38:03.620Z,21.50
2017-08-25T00:40:30.040Z,22.33
2017-08-25T00:42:56.492Z,28.47
2017-08-25T00:45:22.979Z,26.80
2017-08-25T00:47:49.360Z,25.73
2017-08-25T00:50:15.795Z,34.63
2017-08-25T00:52:42.186Z,24.03
2017-08-25T00:55:08.625Z,17.80
2017-08-25T00:57:35.097Z,31.33
2017-08-25T01:00:01.535Z,17.07
2017-08-25T01:02:27.969Z,17.97
2017-08-25T01:04:54.506Z,20.83
2017-08-25T01:07:20.896Z,27.03
2017-08-25T01:09:47.378Z,19.10
2017-08-25T01:12:13.855Z,18.77
2017-08-25T01:14:40.350Z,19.00
2017-08-25T01:17:06.784Z,20.93
2017-08-25T01:19:33.421Z,18.13
2017-08-25T01:21:59.860Z,22.40
2017-08-25T01:24:26.377Z,31.43
2017-08-25T01:26:52.819Z,29.27
2017-08-25T01:29:19.220Z,33.13
2017-08-25T01:31:45.587Z,32.00
2017-08-25T01:34:12.033Z,33.57
2017-08-25T01:36:38.470Z,40.93
2017-08-25T01:39:04.906Z,31.53
2017-08-25T01:41:31.339Z,34.90
2017-08-25T01:43:57.695Z,34.70
2017-08-25T01:46:24.184Z,36.33
2017-08-25T01:48:50.648Z,36.17
2017-08-25T01:51:17.076Z,25.90
2017-08-25T01:53:43.468Z,22.27
2017-08-25T01:56:09.949Z,21.20
2017-08-25T01:58:36.384Z,26.83
2017-08-25T02:01:02.773Z,27.13
2017-08-25T02:03:29.200Z,20.00
2017-08-25T02:05:55.686Z,24.13
2017-08-25T02:08:22.120Z,23.50
2017-08-25T02:10:48.518Z,22.93
2017-08-25T02:13:14.950Z,22.17
2017-08-25T02:15:41.375Z,18.70
2017-08-25T02:18:07.810Z,20.53
2017-08-25T02:20:34.290Z,19.63
2017-08-25T02:23:00.685Z,24.80
2017-08-25T02:25:27.198Z,25.77
2017-08-25T02:27:53.666Z,30.13
2017-08-25T02:30:20.137Z,21.07
2017-08-25T02:32:46.573Z,19.20
2017-08-25T02:35:13.109Z,17.97
2017-08-25T02:37:39.546Z,21.80
2017-08-25T02:40:05.996Z,22.07
2017-08-25T02:42:32.483Z,20.60
2017-08-25T02:44:58.928Z,19.97
2017-08-25T02:47:25.370Z,28.73
2017-08-25T02:49:51.772Z,23.47
2017-08-25T02:52:18.298Z,24.40
2017-08-25T02:54:44.792Z,16.70
2017-08-25T02:57:11.179Z,24.50
2017-08-25T02:59:37.663Z,21.63
2017-08-25T03:02:04.220Z,16.90
2017-08-25T03:04:30.718Z,19.23
2017-08-25T03:06:57.160Z,18.60
2017-08-25T03:09:23.606Z,14.93
2017-08-25T03:11:50.044Z,32.63
2017-08-25T03:14:16.478Z,18.83
2017-08-25T03:16:42.914Z,25.47
2017-08-25T03:19:09.346Z,19.33
2017-08-25T03:21:35.780Z,22.83
2017-08-25T03:24:02.174Z,22.87
2017-08-25T03:26:28.654Z,14.97
2017-08-25T03:28:55.067Z,18.47
2017-08-25T03:31:21.522Z,19.33
2017-08-25T03:33:47.957Z,25.20
2017-08-25T03:36:14.495Z,37.00
2017-08-25T03:38:40.930Z,23.43
2017-08-25T03:41:07.327Z,25.70
2017-08-25T03:43:33.798Z,24.73
2017-08-25T03:46:00.335Z,23.60
2017-08-25T03:48:26.769Z,24.30
2017-08-25T03:50:53.157Z,22.90
2017-08-25T03:53:19.639Z,27.17
2017-08-25T03:55:46.132Z,24.03
2017-08-25T03:58:12.580Z,17.77
2017-08-25T04:00:39.015Z,23.00
2017-08-25T04:03:05.481Z,17.73
2017-08-25T04:05:32.015Z,19.30
2017-08-25T04:07:58.456Z,20.80
2017-08-25T04:10:24.890Z,24.10
2017-08-25T04:12:51.325Z,32.37
2017-08-25T04:15:17.847Z,21.10
2017-08-25T04:17:44.297Z,28.00
2017-08-25T04:20:10.735Z,27.13
2017-08-25T04:22:37.165Z,26.73
2017-08-25T04:25:03.632Z,22.33
2017-08-25T04:27:30.163Z,23.90
2017-08-25T04:29:56.574Z,23.27
2017-08-25T04:32:22.960Z,28.60
2017-08-25T04:34:49.441Z,19.50
2017-08-25T04:37:15.879Z,25.43
2017-08-25T04:39:42.474Z,20.30
2017-08-25T04:42:08.848Z,22.80
2017-08-25T04:44:35.348Z,26.90
2017-08-25T04:47:01.772Z,21.43
2017-08-25T04:49:28.256Z,18.20
2017-08-25T04:51:54.690Z,31.20
2017-08-25T04:54:21.124Z,27.20
2017-08-25T04:56:47.560Z,26.00
2017-08-25T04:59:13.999Z,37.37
2017-08-25T05:01:40.532Z,30.00
2017-08-25T05:04:06.968Z,43.90
2017-08-25T05:06:33.403Z,24.10
2017-08-25T05:08:59.834Z,32.67
2017-08-25T05:11:26.295Z,33.10
2017-08-25T05:13:52.809Z,26.73
2017-08-25T05:16:19.346Z,37.90
2017-08-25T05:18:45.883Z,21.77
2017-08-25T05:21:12.294Z,18.87
2017-08-25T05:23:38.737Z,20.93
2017-08-25T05:26:05.293Z,20.27
2017-08-25T05:28:31.729Z,22.60
2017-08-25T05:30:58.162Z,21.43
2017-08-25T05:33:24.697Z,19.70
2017-08-25T05:35:51.543Z,21.07
2017-08-25T05:38:18.164Z,15.10
2017-08-25T05:40:44.828Z,18.40
2017-08-25T05:43:11.578Z,19.27
2017-08-25T05:45:38.056Z,18.80
2017-08-25T05:48:04.636Z,17.90
2017-08-25T05:50:31.279Z,18.43
2017-08-25T05:52:57.817Z,33.83
2017-08-25T05:55:24.363Z,16.97
2017-08-25T05:57:50.789Z,24.70
2017-08-25T06:00:17.315Z,29.27
2017-08-25T06:02:43.693Z,22.47
2017-08-25T06:05:10.161Z,20.93
2017-08-25T06:07:36.629Z,31.20
2017-08-25T06:10:03.377Z,25.97
2017-08-25T06:12:29.913Z,24.43
2017-08-25T06:14:56.553Z,23.07
2017-08-25T06:17:23.999Z,25.73
2017-08-25T06:19:50.469Z,26.37
2017-08-25T06:22:16.948Z,25.77
2017-08-25T06:24:43.623Z,17.33
2017-08-25T06:27:10.160Z,30.13
2017-08-25T06:29:36.543Z,22.73
2017-08-25T06:32:03.257Z,21.77
2017-08-25T06:34:29.875Z,24.50
2017-08-25T06:36:56.512Z,21.50
2017-08-25T06:39:22.999Z,33.83
2017-08-25T06:41:49.483Z,34.57
2017-08-25T06:44:15.972Z,15.47
2017-08-25T06:46:42.520Z,24.27
2017-08-25T06:49:08.957Z,24.10
2017-08-25T06:51:35.632Z,24.50
2017-08-25T06:54:02.174Z,25.93
2017-08-25T06:56:28.709Z,18.60
2017-08-25T06:58:55.142Z,25.00
2017-08-25T07:01:21.577Z,16.20
2017-08-25T07:03:48.012Z,25.33
2017-08-25T07:06:14.513Z,19.80
2017-08-25T07:08:40.936Z,16.57
2017-08-25T07:11:07.419Z,22.30
2017-08-25T07:13:34.128Z,26.23
2017-08-25T07:16:00.648Z,24.30
2017-08-25T07:18:27.119Z,18.40
2017-08-25T07:20:53.568Z,19.87
2017-08-25T07:23:20.309Z,14.73
2017-08-25T07:25:46.846Z,13.40
2017-08-25T07:28:13.282Z,17.00
2017-08-25T07:30:40.073Z,16.00
2017-08-25T07:33:06.560Z,18.53
2017-08-25T07:35:33.097Z,20.37
2017-08-25T07:38:00.560Z,14.43
2017-08-25T07:40:27.044Z,14.60
2017-08-25T07:42:53.506Z,21.53
2017-08-25T07:45:20.171Z,22.40
2017-08-25T07:47:46.704Z,20.63
2017-08-25T07:50:13.088Z,16.57
2017-08-25T07:52:39.677Z,20.03
2017-08-25T07:55:06.215Z,17.27
2017-08-25T07:57:32.751Z,12.83
2017-08-25T07:59:59.595Z,13.00
2017-08-25T08:02:26.112Z,11.37
2017-08-25T08:04:52.670Z,15.27
2017-08-25T08:07:19.260Z,29.20
2017-08-25T08:09:45.660Z,15.57
2017-08-25T08:12:12.077Z,16.50
2017-08-25T08:14:38.818Z,15.37
2017-08-25T08:17:05.356Z,34.40
2017-08-25T08:19:31.894Z,23.23
2017-08-25T08:21:58.713Z,29.20
2017-08-25T08:24:25.172Z,20.50
2017-08-25T08:26:51.608Z,24.63
2017-08-25T08:29:18.084Z,20.00
2017-08-25T08:31:44.580Z,14.03
2017-08-25T08:34:11.116Z,11.07
2017-08-25T08:36:37.662Z,11.40
2017-08-25T08:39:04.192Z,14.73
2017-08-25T08:41:30.624Z,10.67
2017-08-25T08:43:57.267Z,11.97
2017-08-25T08:46:23.760Z,8.67
2017-08-25T08:48:50.189Z,16.90
2017-08-25T08:51:16.881Z,9.30
2017-08-25T08:53:43.310Z,9.33
2017-08-25T08:56:09.851Z,12.40
2017-08-25T08:58:36.595Z,9.27
2017-08-25T09:01:03.129Z,9.33
2017-08-25T09:03:29.687Z,12.60
2017-08-25T09:05:56.204Z,10.67
2017-08-25T09:08:22.741Z,8.13
2017-08-25T09:10:49.586Z,9.20
2017-08-25T09:13:16.225Z,10.53
2017-08-25T09:15:42.712Z,17.93
2017-08-25T09:18:09.196Z,10.60
2017-08-25T09:20:35.939Z,7.63
2017-08-25T09:23:02.374Z,9.00
2017-08-25T09:25:28.838Z,9.63
2017-08-25T09:27:55.339Z,7.57
2017-08-25T09:30:22.282Z,8.23
2017-08-25T09:32:48.727Z,8.50
2017-08-25T09:35:15.271Z,8.50
2017-08-25T09:37:42.113Z,8.53
2017-08-25T09:40:08.548Z,14.73
2017-08-25T09:42:34.932Z,11.00
2017-08-25T09:45:01.799Z,11.20
2017-08-25T09:47:28.256Z,9.70
2017-08-25T09:49:55.412Z,14.57
2017-08-25T09:52:21.864Z,8.70
2017-08-25T09:54:48.364Z,10.87
2017-08-25T09:57:14.936Z,8.13
2017-08-25T09:59:42.277Z,9.70
2017-08-25T10:02:08.845Z,10.43
2017-08-25T10:04:35.457Z,11.83
2017-08-25T10:07:01.993Z,9.07
2017-08-25T10:09:28.530Z,7.40
2017-08-25T10:11:55.271Z,8.60
2017-08-25T10:14:21.705Z,7.30
2017-08-25T10:16:48.140Z,8.43
2017-08-25T10:19:15.143Z,7.60
2017-08-25T10:21:41.723Z,10.57
2017-08-25T10:24:08.368Z,11.37
2017-08-25T10:26:34.966Z,10.70
2017-08-25T10:29:01.646Z,8.27
2017-08-25T10:31:28.296Z,12.03
2017-08-25T10:33:56.088Z,7.43
2017-08-25T10:36:22.919Z,13.80
2017-08-25T10:38:49.332Z,9.47
2017-08-25T10:41:16.073Z,10.43
2017-08-25T10:43:42.611Z,7.53
2017-08-25T10:46:09.255Z,8.07
2017-08-25T10:48:36.381Z,7.93
2017-08-25T10:51:03.588Z,8.27
2017-08-25T10:53:31.351Z,9.10
2017-08-25T10:55:58.894Z,11.47
2017-08-25T10:58:26.831Z,9.70
2017-08-25T11:00:53.297Z,8.47
2017-08-25T11:03:20.134Z,7.80
2017-08-25T11:05:46.671Z,9.03
2017-08-25T11:08:13.620Z,7.43
2017-08-25T11:10:40.464Z,7.53
2017-08-25T11:13:07.202Z,10.43
2017-08-25T11:15:33.636Z,9.73
2017-08-25T11:18:00.475Z,7.80
2017-08-25T11:20:26.914Z,13.73
2017-08-25T11:22:53.459Z,7.50
2017-08-25T11:25:20.404Z,8.87
2017-08-25T11:27:46.941Z,10.83
2017-08-25T11:30:13.496Z,6.77
2017-08-25T11:32:40.371Z,8.63
2017-08-25T11:35:06.960Z,7.80
2017-08-25T11:37:33.503Z,13.67
2017-08-25T11:40:00.496Z,7.07
2017-08-25T11:42:26.932Z,9.57
2017-08-25T11:44:53.518Z,5.70
2017-08-25T11:47:20.157Z,6.77
2017-08-25T11:49:47.564Z,5.90
2017-08-25T11:52:14.004Z,5.20
2017-08-25T11:54:40.597Z,5.27
2017-08-25T11:57:07.126Z,4.53
2017-08-25T11:59:33.560Z,4.73
2017-08-25T12:02:00.406Z,5.00
2017-08-25T12:04:26.840Z,4.63
2017-08-25T12:06:53.279Z,4.30
2017-08-25T12:09:19.728Z,4.73
2017-08-25T12:11:46.144Z,4.50
2017-08-25T12:14:12.581Z,4.40
2017-08-25T12:16:39.629Z,15.50
2017-08-25T12:19:06.065Z,4.40
2017-08-25T12:21:32.600Z,3.90
2017-08-25T12:23:59.240Z,3.70
2017-08-25T12:26:26.088Z,3.87
2017-08-25T12:28:52.521Z,6.77
2017-08-25T12:31:19.149Z,3.73
2017-08-25T12:33:45.697Z,3.40
2017-08-25T12:36:12.184Z,4.27
2017-08-25T12:38:39.029Z,6.53
2017-08-25T12:41:05.514Z,3.97
2017-08-25T12:43:31.952Z,3.90
2017-08-25T12:45:59.098Z,3.70
2017-08-25T12:48:25.535Z,4.03
2017-08-25T12:50:51.971Z,4.27
2017-08-25T12:53:18.817Z,3.90
2017-08-25T12:55:45.353Z,3.30
2017-08-25T12:58:11.786Z,3.10
2017-08-25T13:00:38.631Z,3.10
2017-08-25T13:03:05.190Z,10.20
2017-08-25T13:05:32.246Z,3.78
2017-08-25T13:07:59.144Z,3.10
2017-08-25T13:10:25.587Z,6.78
2017-08-25T13:12:52.057Z,3.22
2017-08-25T13:15:18.571Z,2.65
2017-08-25T13:17:45.927Z,3.03
2017-08-25T13:20:12.363Z,2.62
2017-08-25T13:22:38.797Z,2.80
2017-08-25T13:25:05.549Z,3.05
2017-08-25T13:27:31.974Z,8.55
2017-08-25T13:29:59.126Z,2.65
2017-08-25T13:32:25.513Z,5.65
2017-08-25T13:34:51.913Z,2.70
2017-08-25T13:37:18.530Z,2.80
2017-08-25T13:39:44.968Z,3.42
2017-08-25T13:42:11.505Z,3.72
2017-08-25T13:44:38.050Z,3.72
2017-08-25T13:47:04.939Z,3.00
2017-08-25T13:49:31.443Z,3.87
2017-08-25T13:51:57.962Z,3.00
2017-08-25T13:54:24.504Z,3.08
2017-08-25T13:56:50.987Z,3.70
2017-08-25T13:59:17.414Z,4.33
2017-08-25T14:01:43.957Z,3.90
2017-08-25T14:04:10.462Z,3.90
2017-08-25T14:06:36.934Z,5.07
2017-08-25T14:09:03.413Z,4.93
2017-08-25T14:11:29.951Z,4.70
2017-08-25T14:13:57.161Z,5.83
2017-08-25T14:16:23.741Z,6.07
2017-08-25T14:18:50.177Z,21.37
2017-08-25T14:21:16.612Z,8.00
2017-08-25T14:23:43.559Z,14.10
2017-08-25T14:26:10.047Z,9.43
2017-08-25T14:28:36.530Z,10.53
2017-08-25T14:31:03.197Z,7.87
2017-08-25T14:33:29.705Z,12.80
2017-08-25T14:35:56.168Z,6.87
2017-08-25T14:38:23.088Z,7.37
2017-08-25T14:40:49.577Z,8.00
2017-08-25T14:43:16.775Z,7.50
2017-08-25T14:45:43.622Z,9.97
2017-08-25T14:48:10.142Z,9.13
2017-08-25T14:50:36.695Z,8.93
2017-08-25T14:53:03.846Z,13.00
2017-08-25T14:55:30.385Z,8.23
2017-08-25T14:57:56.824Z,9.67
2017-08-25T15:00:23.257Z,7.83
2017-08-25T15:02:50.075Z,8.17
2017-08-25T15:05:16.587Z,13.50
2017-08-25T15:07:43.029Z,9.60
2017-08-25T15:10:10.139Z,8.03
2017-08-25T15:12:36.657Z,10.30
2017-08-25T15:15:03.197Z,9.90
2017-08-25T15:17:31.493Z,8.27
2017-08-25T15:19:58.931Z,10.00
2017-08-25T15:22:28.870Z,10.93
2017-08-25T15:24:58.832Z,11.57
2017-08-25T15:27:30.561Z,11.53
2017-08-25T15:30:07.588Z,10.89
2017-08-25T15:35:18.901Z,11.30
2017-08-25T15:37:45.552Z,8.43
2017-08-25T15:40:11.962Z,10.00
2017-08-25T15:42:38.624Z,9.80
2017-08-25T15:45:06.089Z,11.37
2017-08-25T15:47:32.621Z,13.13
2017-08-25T15:49:59.568Z,8.67
2017-08-25T15:52:26.818Z,14.83
2017-08-25T15:54:53.358Z,10.40
2017-08-25T15:57:19.895Z,12.50
2017-08-25T15:59:46.330Z,10.03
2017-08-25T16:02:12.765Z,9.60
2017-08-25T16:04:39.507Z,13.60
2017-08-25T16:07:05.882Z,11.70
2017-08-25T16:09:32.332Z,10.80
2017-08-25T16:11:58.801Z,13.33
2017-08-25T16:14:25.225Z,12.03
2017-08-25T16:16:51.635Z,12.17
2017-08-25T16:19:18.103Z,13.63
2017-08-25T16:21:44.859Z,16.30
2017-08-25T16:24:11.294Z,14.70
2017-08-25T16:26:37.730Z,13.03
2017-08-25T16:29:04.115Z,13.20
2017-08-25T16:31:30.599Z,12.17
2017-08-25T16:33:57.443Z,15.23
2017-08-25T16:36:24.002Z,13.07
2017-08-25T16:38:50.437Z,18.30
2017-08-25T16:41:16.940Z,16.63
2017-08-25T16:43:43.396Z,14.00
2017-08-25T16:46:09.925Z,14.80
2017-08-25T16:48:36.344Z,22.20
2017-08-25T16:51:02.960Z,19.67
2017-08-25T16:53:29.434Z,47.43
2017-08-25T16:55:55.937Z,21.83
2017-08-25T16:58:22.390Z,19.67
2017-08-25T17:00:48.833Z,18.13
2017-08-25T17:03:15.483Z,16.90
2017-08-25T17:05:42.019Z,18.00
2017-08-25T17:08:08.415Z,18.20
2017-08-25T17:10:34.786Z,14.53
2017-08-25T17:13:01.176Z,44.30
2017-08-25T17:15:27.643Z,27.20
2017-08-25T17:17:54.093Z,41.63
2017-08-25T17:20:20.478Z,20.57
2017-08-25T17:22:47.325Z,29.03
2017-08-25T17:25:13.805Z,20.20
2017-08-25T17:27:40.195Z,21.80
2017-08-25T17:30:06.675Z,33.17
2017-08-25T17:32:33.417Z,24.33
2017-08-25T17:34:59.913Z,25.97
2017-08-25T17:37:26.389Z,29.97
2017-08-25T17:39:52.822Z,28.57
2017-08-25T17:42:19.259Z,27.50
2017-08-25T17:44:45.692Z,29.83
2017-08-25T17:47:12.129Z,23.00
2017-08-25T17:49:38.563Z,24.17
2017-08-25T17:52:05.155Z,27.33
2017-08-25T17:54:31.629Z,17.63
2017-08-25T17:56:58.073Z,22.53
2017-08-25T17:59:24.815Z,26.10
2017-08-25T18:01:51.200Z,20.37
2017-08-25T18:04:18.095Z,22.83
2017-08-25T18:06:44.529Z,24.23
2017-08-25T18:09:10.966Z,22.80
2017-08-25T18:11:37.400Z,22.43
2017-08-25T18:14:03.834Z,21.30
2017-08-25T18:16:30.372Z,25.03
2017-08-25T18:18:56.806Z,25.97
2017-08-25T18:21:24.061Z,18.50
2017-08-25T18:23:50.495Z,16.10
2017-08-25T18:26:16.993Z,20.03
2017-08-25T18:28:43.365Z,19.60
2017-08-25T18:31:09.803Z,23.30
2017-08-25T18:33:36.639Z,44.37
2017-08-25T18:36:03.183Z,27.77
2017-08-25T18:38:29.617Z,27.80
2017-08-25T18:40:56.054Z,22.40
2017-08-25T18:43:22.541Z,15.20
2017-08-25T18:45:48.982Z,20.70
2017-08-25T18:48:15.446Z,14.23
2017-08-25T18:50:41.888Z,22.73
2017-08-25T18:53:08.331Z,21.77
2017-08-25T18:55:34.868Z,19.83
2017-08-25T18:58:01.255Z,19.20
2017-08-25T19:00:27.605Z,18.87
2017-08-25T19:02:54.051Z,20.20
2017-08-25T19:05:20.605Z,24.00
2017-08-25T19:07:46.992Z,20.00
2017-08-25T19:10:13.474Z,24.77
2017-08-25T19:12:39.871Z,25.30
2017-08-25T19:15:06.345Z,44.27
2017-08-25T19:17:32.779Z,21.17
2017-08-25T19:19:59.215Z,17.97
2017-08-25T19:22:25.649Z,26.80
2017-08-25T19:24:52.160Z,17.80
2017-08-25T19:27:18.622Z,24.73
2017-08-25T19:29:45.000Z,20.70
2017-08-25T19:32:11.492Z,13.00
2017-08-25T19:34:38.647Z,16.17
2017-08-25T19:37:05.034Z,15.83
2017-08-25T19:39:31.616Z,17.80
2017-08-25T19:41:58.051Z,15.40
2017-08-25T19:44:24.505Z,14.40
2017-08-25T19:46:50.926Z,15.83
2017-08-25T19:49:17.358Z,19.20
2017-08-25T19:51:44.509Z,16.63
2017-08-25T19:54:11.001Z,13.83
2017-08-25T19:56:37.437Z,15.07
2017-08-25T19:59:03.881Z,15.73
2017-08-25T20:01:30.349Z,17.57
2017-08-25T20:03:56.786Z,20.07
2017-08-25T20:06:23.321Z,14.73
2017-08-25T20:08:49.757Z,18.43
2017-08-25T20:11:16.190Z,17.93
2017-08-25T20:13:42.580Z,16.27
2017-08-25T20:16:09.016Z,19.10
2017-08-25T20:18:35.495Z,14.87
2017-08-25T20:21:01.879Z,15.10
2017-08-25T20:23:28.774Z,31.07
2017-08-25T20:25:55.312Z,23.10
2017-08-25T20:28:21.747Z,16.37
2017-08-25T20:30:48.184Z,20.10
2017-08-25T20:33:14.617Z,18.50
2017-08-25T20:35:41.107Z,18.57
2017-08-25T20:38:07.486Z,16.27
2017-08-25T20:40:33.876Z,37.47
2017-08-25T20:43:00.307Z,36.20
2017-08-25T20:45:27.612Z,22.43
2017-08-25T20:47:54.046Z,74.60
2017-08-25T20:50:20.479Z,43.83
2017-08-25T20:52:46.918Z,30.57
2017-08-25T20:55:13.403Z,16.17
2017-08-25T20:57:39.884Z,22.97
2017-08-25T21:00:06.328Z,17.93
2017-08-25T21:02:32.758Z,43.10
2017-08-25T21:04:59.264Z,48.60
2017-08-25T21:07:25.728Z,20.13
2017-08-25T21:09:52.116Z,18.93
2017-08-25T21:12:18.598Z,26.00
2017-08-25T21:14:45.135Z,30.73
2017-08-25T21:17:11.572Z,34.07
2017-08-25T21:19:38.110Z,21.20
2017-08-25T21:22:04.544Z,21.50
2017-08-25T21:24:31.800Z,21.67
2017-08-25T21:26:58.334Z,22.53
2017-08-25T21:29:24.815Z,20.10
2017-08-25T21:31:51.305Z,17.53
2017-08-25T21:34:17.744Z,19.23
2017-08-25T21:36:44.181Z,22.27
2017-08-25T21:39:10.613Z,18.40
2017-08-25T21:41:37.004Z,21.80
2017-08-25T21:44:03.481Z,49.10
2017-08-25T21:46:30.020Z,41.77
2017-08-25T21:48:56.459Z,26.13
2017-08-25T21:51:22.891Z,33.00
2017-08-25T21:53:49.324Z,46.17
2017-08-25T21:56:15.862Z,27.30
2017-08-25T21:58:42.295Z,25.17
2017-08-25T22:01:08.730Z,21.63
2017-08-25T22:03:35.165Z,23.47
2017-08-25T22:06:01.701Z,29.13
2017-08-25T22:08:28.137Z,37.17
2017-08-25T22:10:54.540Z,29.77
2017-08-25T22:13:20.912Z,21.70
2017-08-25T22:15:47.446Z,17.93
2017-08-25T22:18:13.844Z,30.53
2017-08-25T22:20:40.310Z,23.13
2017-08-25T22:23:06.746Z,57.00
2017-08-25T22:25:33.286Z,27.90
2017-08-25T22:27:59.647Z,18.53
2017-08-25T22:30:26.130Z,24.83
2017-08-25T22:32:53.512Z,27.13
2017-08-25T22:35:20.048Z,40.33
2017-08-25T22:37:46.481Z,56.17
2017-08-25T22:40:12.940Z,32.77
2017-08-25T22:42:39.352Z,22.53
2017-08-25T22:45:05.889Z,25.43
2017-08-25T22:47:32.275Z,15.77
2017-08-25T22:49:59.580Z,19.20
2017-08-25T22:52:26.013Z,18.07
2017-08-25T22:54:52.522Z,18.80
2017-08-25T22:57:19.600Z,19.23
2017-08-25T22:59:46.096Z,23.30
2017-08-25T23:02:12.469Z,26.90
2017-08-25T23:04:38.962Z,20.93
2017-08-25T23:07:05.444Z,32.70
2017-08-25T23:09:31.876Z,28.90
2017-08-25T23:11:59.132Z,19.90
2017-08-25T23:14:25.565Z,27.40
2017-08-25T23:16:51.955Z,23.93
2017-08-25T23:19:18.541Z,22.80
2017-08-25T23:21:44.997Z,31.67
2017-08-25T23:24:11.407Z,34.43
2017-08-25T23:26:37.843Z,28.53
2017-08-25T23:29:04.380Z,44.63
2017-08-25T23:31:30.815Z,27.07
2017-08-25T23:33:57.251Z,24.50
2017-08-25T23:36:23.788Z,27.47
2017-08-25T23:38:50.223Z,32.37
2017-08-25T23:41:16.618Z,23.07
2017-08-25T23:43:43.054Z,31.00
2017-08-25T23:46:09.570Z,19.63
2017-08-25T23:48:36.063Z,28.80
2017-08-25T23:51:03.213Z,23.40
2017-08-25T23:53:29.652Z,22.40
2017-08-25T23:55:56.188Z,25.20
2017-08-25T23:58:22.623Z,20.80
